createdAt,value
2019-02-27T00:01:03.922Z,99.90
2019-02-27T00:03:33.177Z,99.90
2019-02-27T00:06:02.300Z,99.90
2019-02-27T00:08:31.397Z,99.90
2019-02-27T00:11:00.505Z,99.90
2019-02-27T00:13:29.659Z,99.90
2019-02-27T00:15:58.757Z,99.90
2019-02-27T00:18:27.828Z,99.90
2019-02-27T00:20:56.921Z,99.90
2019-02-27T00:40:24.377Z,99.90
2019-02-27T00:43:18.472Z,99.90
2019-02-27T00:45:51.426Z,99.90
2019-02-27T00:48:26.761Z,99.90
2019-02-27T00:50:59.851Z,99.90
2019-02-27T00:59:33.125Z,99.90
2019-02-27T01:02:39.782Z,99.90
2019-02-27T01:08:46.246Z,99.90
2019-02-27T01:11:52.473Z,99.90
2019-02-27T01:17:45.381Z,99.90
2019-02-27T01:20:46.431Z,99.90
2019-02-27T01:23:16.067Z,99.90
2019-02-27T01:26:20.076Z,99.90
2019-02-27T01:31:05.501Z,99.90
2019-02-27T01:32:41.403Z,99.90
2019-02-27T01:35:52.281Z,99.90
2019-02-27T01:38:49.790Z,99.90
2019-02-27T01:41:24.361Z,99.90
2019-02-27T01:43:51.362Z,99.90
2019-02-27T01:46:29.981Z,99.90
2019-02-27T01:49:09.274Z,99.90
2019-02-27T01:51:39.334Z,99.90
2019-02-27T02:00:32.129Z,99.90
2019-02-27T02:10:38.552Z,99.90
2019-02-27T02:13:37.784Z,99.90
2019-02-27T02:16:51.291Z,99.90
2019-02-27T02:20:10.157Z,99.90
2019-02-27T02:23:30.083Z,99.90
2019-02-27T02:34:16.608Z,99.90
2019-02-27T02:44:38.987Z,99.90
2019-02-27T03:03:03.610Z,99.90
2019-02-27T03:37:30.241Z,99.90
2019-02-27T03:56:17.192Z,99.90
2019-02-27T04:15:32.167Z,99.90
2019-02-27T04:18:52.155Z,99.90
2019-02-27T04:25:04.220Z,99.90
2019-02-27T04:52:50.404Z,99.90
2019-02-27T04:55:41.449Z,99.90
2019-02-27T04:58:49.662Z,99.90
2019-02-27T05:08:27.053Z,99.90
2019-02-27T05:11:27.023Z,99.90
2019-02-27T05:29:28.613Z,99.90
2019-02-27T05:31:40.917Z,99.90
2019-02-27T05:34:21.589Z,99.90
2019-02-27T05:37:08.607Z,99.90
2019-02-27T05:53:36.409Z,99.90
2019-02-27T05:56:07.623Z,99.90
2019-02-27T05:59:06.974Z,99.90
2019-02-27T06:02:04.243Z,99.90
2019-02-27T06:04:29.898Z,99.90
2019-02-27T06:07:52.786Z,99.90
2019-02-27T06:10:23.622Z,99.90
2019-02-27T06:15:49.251Z,99.90
2019-02-27T06:18:22.436Z,99.90
2019-02-27T06:20:49.844Z,99.90
2019-02-27T06:23:19.188Z,99.90
2019-02-27T06:25:48.634Z,99.90
2019-02-27T06:28:18.742Z,99.90
2019-02-27T06:30:48.386Z,99.90
2019-02-27T06:33:17.466Z,99.90
2019-02-27T06:35:46.691Z,99.90
2019-02-27T06:38:15.766Z,99.90
2019-02-27T06:40:44.677Z,99.90
2019-02-27T06:43:13.744Z,99.90
2019-02-27T06:45:45.521Z,99.90
2019-02-27T06:48:13.462Z,99.90
2019-02-27T06:50:42.682Z,99.90
2019-02-27T06:53:15.401Z,99.90
2019-02-27T06:55:42.364Z,99.90
2019-02-27T06:58:14.435Z,99.90
2019-02-27T07:00:41.965Z,99.90
2019-02-27T07:03:10.874Z,99.90
2019-02-27T07:05:39.697Z,99.90
2019-02-27T07:08:08.727Z,99.90
2019-02-27T07:10:37.579Z,99.90
2019-02-27T07:13:06.566Z,99.90
2019-02-27T07:15:35.656Z,99.90
2019-02-27T07:18:06.225Z,99.90
2019-02-27T07:20:35.323Z,99.90
2019-02-27T07:23:04.313Z,99.90
2019-02-27T07:25:33.383Z,99.90
2019-02-27T07:28:03.503Z,99.90
2019-02-27T07:30:32.825Z,99.90
2019-02-27T07:33:03.718Z,99.90
2019-02-27T07:35:32.501Z,99.90
2019-02-27T07:38:01.423Z,99.90
2019-02-27T07:40:30.389Z,99.90
2019-02-27T07:42:59.318Z,99.90
2019-02-27T07:45:28.191Z,99.90
2019-02-27T07:47:57.203Z,99.90
2019-02-27T07:50:26.330Z,99.90
2019-02-27T07:52:55.449Z,99.90
2019-02-27T07:55:28.213Z,99.90
2019-02-27T07:57:58.384Z,99.90
2019-02-27T08:00:26.539Z,99.90
2019-02-27T08:02:55.539Z,99.90
2019-02-27T08:05:27.893Z,99.90
2019-02-27T08:07:55.223Z,99.90
2019-02-27T08:10:24.201Z,99.40
2019-02-27T08:12:55.728Z,98.60
2019-02-27T08:15:25.303Z,97.50
2019-02-27T08:17:57.603Z,96.20
2019-02-27T08:20:25.137Z,94.70
2019-02-27T08:22:54.111Z,92.60
2019-02-27T08:25:23.026Z,91.30
2019-02-27T08:27:54.125Z,89.10
2019-02-27T08:30:23.050Z,85.10
2019-02-27T08:32:52.110Z,80.60
2019-02-27T08:35:21.033Z,80.80
2019-02-27T08:37:49.977Z,75.50
2019-02-27T08:40:18.923Z,74.50
2019-02-27T08:42:47.904Z,74.80
2019-02-27T08:45:20.098Z,71.00
2019-02-27T08:47:47.778Z,70.00
2019-02-27T08:50:16.849Z,70.50
2019-02-27T08:52:50.206Z,68.70
2019-02-27T08:55:21.116Z,65.90
2019-02-27T08:57:49.780Z,65.50
2019-02-27T09:00:20.299Z,63.40
2019-02-27T09:02:49.385Z,64.00
2019-02-27T09:05:20.102Z,61.90
2019-02-27T09:07:49.189Z,61.80
2019-02-27T09:10:18.197Z,59.00
2019-02-27T09:12:48.810Z,57.70
2019-02-27T09:15:17.839Z,58.30
2019-02-27T09:17:46.822Z,57.70
2019-02-27T09:20:19.259Z,57.20
2019-02-27T09:22:46.671Z,56.60
2019-02-27T09:25:15.709Z,55.50
2019-02-27T09:27:44.782Z,54.60
2019-02-27T09:30:14.705Z,55.20
2019-02-27T09:32:45.989Z,55.20
2019-02-27T09:35:14.956Z,54.70
2019-02-27T09:37:43.836Z,54.80
2019-02-27T09:40:15.065Z,55.30
2019-02-27T09:42:44.114Z,54.10
2019-02-27T09:45:22.385Z,53.10
2019-02-27T09:47:51.330Z,53.50
2019-02-27T09:50:28.679Z,51.90
2019-02-27T09:52:57.689Z,51.50
2019-02-27T09:55:26.706Z,49.80
2019-02-27T09:57:55.843Z,49.90
2019-02-27T10:00:33.327Z,48.70
2019-02-27T10:03:02.477Z,48.10
2019-02-27T10:05:36.349Z,48.20
2019-02-27T10:08:02.175Z,47.70
2019-02-27T10:10:31.162Z,46.60
2019-02-27T10:13:03.185Z,46.40
2019-02-27T10:15:30.859Z,46.10
2019-02-27T10:17:59.881Z,45.40
2019-02-27T10:20:28.934Z,44.90
2019-02-27T10:22:57.853Z,44.50
2019-02-27T10:25:26.779Z,45.10
2019-02-27T10:27:55.890Z,45.30
2019-02-27T10:30:24.887Z,44.80
2019-02-27T10:32:53.697Z,43.90
2019-02-27T10:35:23.070Z,43.20
2019-02-27T10:37:54.318Z,44.10
2019-02-27T10:40:22.946Z,42.60
2019-02-27T10:42:51.877Z,43.30
2019-02-27T10:45:20.858Z,42.40
2019-02-27T10:47:49.804Z,42.20
2019-02-27T10:50:18.770Z,42.00
2019-02-27T10:52:49.859Z,41.60
2019-02-27T10:55:18.666Z,42.30
2019-02-27T10:57:47.716Z,40.60
2019-02-27T11:00:25.959Z,40.40
2019-02-27T11:02:54.938Z,40.50
2019-02-27T11:05:23.908Z,40.70
2019-02-27T11:07:53.525Z,40.00
2019-02-27T11:10:22.754Z,39.40
2019-02-27T11:12:51.635Z,39.30
2019-02-27T11:15:20.591Z,39.10
2019-02-27T11:17:49.641Z,39.70
2019-02-27T11:20:21.007Z,38.50
2019-02-27T11:22:49.689Z,38.50
2019-02-27T11:25:22.333Z,38.30
2019-02-27T11:27:50.411Z,37.50
2019-02-27T11:30:21.537Z,37.60
2019-02-27T11:32:50.590Z,37.60
2019-02-27T11:35:22.014Z,37.50
2019-02-27T11:37:50.301Z,37.30
2019-02-27T11:40:20.645Z,37.20
2019-02-27T11:42:49.682Z,37.50
2019-02-27T11:45:23.738Z,38.40
2019-02-27T11:47:49.351Z,37.80
2019-02-27T11:50:18.747Z,37.40
2019-02-27T11:52:49.036Z,37.40
2019-02-27T11:55:18.286Z,36.00
2019-02-27T11:57:47.347Z,36.40
2019-02-27T12:00:21.316Z,36.50
2019-02-27T12:02:50.610Z,35.50
2019-02-27T12:05:19.698Z,35.20
2019-02-27T12:07:51.271Z,35.80
2019-02-27T12:10:20.853Z,34.90
2019-02-27T12:12:49.853Z,35.30
2019-02-27T12:15:19.167Z,36.30
2019-02-27T12:17:48.158Z,36.10
2019-02-27T12:20:18.856Z,34.90
2019-02-27T12:22:47.995Z,34.30
2019-02-27T12:25:17.366Z,35.20
2019-02-27T12:27:49.413Z,34.10
2019-02-27T12:30:18.581Z,35.60
2019-02-27T12:32:48.063Z,33.60
2019-02-27T12:35:24.931Z,34.80
2019-02-27T12:37:54.160Z,35.20
2019-02-27T12:40:25.046Z,35.30
2019-02-27T12:42:54.541Z,34.80
2019-02-27T12:45:25.751Z,35.20
2019-02-27T12:47:56.342Z,34.90
2019-02-27T12:50:29.686Z,35.20
2019-02-27T12:52:57.026Z,34.00
2019-02-27T12:55:26.296Z,34.00
2019-02-27T12:57:59.038Z,34.60
2019-02-27T13:00:29.020Z,34.70
2019-02-27T13:02:59.050Z,34.40
2019-02-27T13:05:28.514Z,35.40
2019-02-27T13:07:58.106Z,36.20
2019-02-27T13:10:27.331Z,36.90
2019-02-27T13:12:56.356Z,36.20
2019-02-27T13:15:25.682Z,32.90
2019-02-27T13:17:57.703Z,34.10
2019-02-27T13:20:26.709Z,35.00
2019-02-27T13:22:56.264Z,33.90
2019-02-27T13:25:25.439Z,33.30
2019-02-27T13:27:54.865Z,35.20
2019-02-27T13:30:24.031Z,34.70
2019-02-27T13:32:53.187Z,35.80
2019-02-27T13:35:22.961Z,36.60
2019-02-27T13:37:53.311Z,37.50
2019-02-27T13:40:22.574Z,39.30
2019-02-27T13:42:53.414Z,35.90
2019-02-27T13:45:24.322Z,36.70
2019-02-27T13:47:53.587Z,38.00
2019-02-27T13:50:26.510Z,37.20
2019-02-27T13:52:53.820Z,36.80
2019-02-27T13:55:23.221Z,36.40
2019-02-27T13:57:52.476Z,35.80
2019-02-27T14:00:27.198Z,35.60
2019-02-27T14:02:56.379Z,34.40
2019-02-27T14:05:25.871Z,34.90
2019-02-27T14:07:58.328Z,35.00
2019-02-27T14:10:27.209Z,35.60
2019-02-27T14:12:56.790Z,35.30
2019-02-27T14:15:27.397Z,35.40
2019-02-27T14:17:57.079Z,35.20
2019-02-27T14:20:27.038Z,34.90
2019-02-27T14:22:56.547Z,35.20
2019-02-27T14:25:31.054Z,34.80
2019-02-27T14:27:57.376Z,35.30
2019-02-27T14:30:29.619Z,35.20
2019-02-27T14:33:01.625Z,34.30
2019-02-27T14:35:36.204Z,35.50
2019-02-27T14:38:05.570Z,35.80
2019-02-27T14:40:39.520Z,37.30
2019-02-27T14:43:07.376Z,33.50
2019-02-27T14:45:39.589Z,34.40
2019-02-27T14:48:07.784Z,33.70
2019-02-27T14:50:41.834Z,33.80
2019-02-27T14:53:11.091Z,34.20
2019-02-27T14:55:44.795Z,35.40
2019-02-27T14:58:24.435Z,34.60
2019-02-27T15:00:54.843Z,36.40
2019-02-27T15:03:37.631Z,34.50
2019-02-27T15:06:19.392Z,37.00
2019-02-27T15:08:57.996Z,38.90
2019-02-27T15:11:25.936Z,39.90
2019-02-27T15:14:01.785Z,40.00
2019-02-27T15:16:31.120Z,41.10
2019-02-27T15:19:00.923Z,40.10
2019-02-27T15:21:31.868Z,41.90
2019-02-27T15:24:02.170Z,40.90
2019-02-27T15:26:33.429Z,41.00
2019-02-27T15:29:09.083Z,40.00
2019-02-27T15:31:41.804Z,38.80
2019-02-27T15:34:17.487Z,38.70
2019-02-27T15:36:49.032Z,40.30
2019-02-27T15:39:27.959Z,40.40
2019-02-27T15:42:03.272Z,39.70
2019-02-27T15:44:56.398Z,41.80
2019-02-27T15:47:54.531Z,43.60
2019-02-27T15:50:24.465Z,42.90
2019-02-27T15:53:20.514Z,43.50
2019-02-27T15:55:59.086Z,42.50
2019-02-27T15:58:51.883Z,43.50
2019-02-27T16:02:03.493Z,44.30
2019-02-27T16:04:31.300Z,44.00
2019-02-27T16:07:24.852Z,44.00
2019-02-27T16:10:07.079Z,45.00
2019-02-27T16:12:38.725Z,45.30
2019-02-27T16:15:18.763Z,46.20
2019-02-27T16:18:14.856Z,47.70
2019-02-27T16:20:47.107Z,46.20
2019-02-27T16:23:21.958Z,47.50
2019-02-27T16:25:54.126Z,48.10
2019-02-27T16:28:22.812Z,47.60
2019-02-27T16:30:51.999Z,47.60
2019-02-27T16:33:23.877Z,48.20
2019-02-27T16:35:52.731Z,48.80
2019-02-27T16:38:24.937Z,49.20
2019-02-27T16:40:59.920Z,49.50
2019-02-27T16:43:29.264Z,48.90
2019-02-27T16:45:58.594Z,49.00
2019-02-27T16:48:31.116Z,49.40
2019-02-27T16:51:05.279Z,49.00
2019-02-27T16:53:37.115Z,49.60
2019-02-27T16:56:08.258Z,49.30
2019-02-27T16:58:48.620Z,49.60
2019-02-27T17:01:26.284Z,50.30
2019-02-27T17:04:00.346Z,52.10
2019-02-27T17:06:30.158Z,52.40
2019-02-27T17:08:59.494Z,52.50
2019-02-27T17:11:29.421Z,53.30
2019-02-27T17:14:03.066Z,53.80
2019-02-27T17:16:38.327Z,54.10
2019-02-27T17:19:16.060Z,53.60
2019-02-27T17:32:48.807Z,55.80
2019-02-27T17:36:19.331Z,56.20
2019-02-27T17:39:42.937Z,56.70
2019-02-27T17:49:34.179Z,59.70
2019-02-27T17:53:37.967Z,60.10
2019-02-27T17:55:41.496Z,59.60
2019-02-27T18:08:17.218Z,62.70
2019-02-27T18:14:27.309Z,65.00
2019-02-27T18:24:50.904Z,68.20
2019-02-27T18:31:58.393Z,69.20
2019-02-27T18:48:49.410Z,72.80
2019-02-27T19:28:27.238Z,82.30
2019-02-27T19:31:33.416Z,84.70
2019-02-27T20:33:58.605Z,99.90
2019-02-27T20:43:56.687Z,99.90
2019-02-27T20:50:46.783Z,99.90
2019-02-27T20:53:41.359Z,99.90
2019-02-27T21:05:19.418Z,99.90
2019-02-27T21:08:12.098Z,99.90
2019-02-27T21:11:37.734Z,99.90
2019-02-27T21:53:00.548Z,99.90
2019-02-27T21:56:08.935Z,99.90
2019-02-27T21:59:21.337Z,99.90
2019-02-27T22:05:05.034Z,99.90
2019-02-27T22:11:20.435Z,99.90
2019-02-27T22:28:51.091Z,99.90
2019-02-27T22:38:49.910Z,99.90
2019-02-27T22:41:27.819Z,99.90
2019-02-27T22:44:01.311Z,99.90
2019-02-27T22:46:34.654Z,99.90
2019-02-27T22:49:06.480Z,99.90
2019-02-27T22:51:35.481Z,99.90
2019-02-27T22:54:04.540Z,99.90
2019-02-27T22:56:33.571Z,99.90
2019-02-27T22:59:03.758Z,99.90
2019-02-27T23:01:50.729Z,99.90
2019-02-27T23:04:18.859Z,99.90
2019-02-27T23:06:48.007Z,99.90
2019-02-27T23:09:18.069Z,99.90
2019-02-27T23:11:47.368Z,99.90
2019-02-27T23:14:18.938Z,99.90
2019-02-27T23:16:47.616Z,99.90
2019-02-27T23:19:16.854Z,99.90
2019-02-27T23:21:45.984Z,99.90
2019-02-27T23:24:15.071Z,99.90
2019-02-27T23:26:44.087Z,99.90
2019-02-27T23:29:13.231Z,99.90
2019-02-27T23:31:42.368Z,99.90
2019-02-27T23:34:11.471Z,99.90
2019-02-27T23:36:40.795Z,99.90
2019-02-27T23:39:10.521Z,99.90
2019-02-27T23:41:40.105Z,99.90
2019-02-27T23:44:09.125Z,99.90
2019-02-27T23:46:38.259Z,99.90
2019-02-27T23:49:07.471Z,99.90
2019-02-27T23:51:36.805Z,99.90
2019-02-27T23:54:05.967Z,99.90
2019-02-27T23:56:35.093Z,99.90
2019-02-27T23:59:04.243Z,99.90
